Time;durP1;ratioP1;P1;durP2;ratioP2;P2;SDS_P1;SDS_P2;PMS_P1;PMS_P2;Temp;Humidity;BMP_temperature;BMP_pressure;BME280_temperature;BME280_humidity;BME280_pressure;Samples;Min_cycle;Max_cycle;Signal;HPM_P1;HPM_P2
2023/07/08 00:00:17;;;;;;;6.30;5.80;;;21.60;92.10;;;;;;5054556;28;20400;-77
2023/07/08 00:02:44;;;;;;;6.33;5.93;;;21.50;91.90;;;;;;5054558;28;20173;-77
2023/07/08 00:05:11;;;;;;;6.17;5.57;;;21.50;92.00;;;;;;5054570;28;20396;-77
2023/07/08 00:07:39;;;;;;;9.63;5.77;;;21.50;92.00;;;;;;5054109;28;20443;-77
2023/07/08 00:10:15;;;;;;;6.20;5.70;;;21.40;92.00;;;;;;5054414;28;20494;-77
2023/07/08 00:12:43;;;;;;;5.93;5.43;;;21.40;92.20;;;;;;5054030;28;20404;-76
2023/07/08 00:15:09;;;;;;;5.73;5.33;;;21.40;92.70;;;;;;5053755;28;21017;-77
2023/07/08 00:17:36;;;;;;;10.33;6.03;;;21.40;92.60;;;;;;5053628;28;20432;-76
2023/07/08 00:20:08;;;;;;;7.30;6.70;;;21.40;92.50;;;;;;5054174;28;20408;-77
2023/07/08 00:22:36;;;;;;;6.50;6.00;;;21.40;92.60;;;;;;5053295;28;20799;-76
2023/07/08 00:25:02;;;;;;;5.90;5.40;;;21.30;92.60;;;;;;5053817;28;20396;-77
2023/07/08 00:27:28;;;;;;;6.60;6.10;;;21.40;92.80;;;;;;5053394;28;20408;-77
2023/07/08 00:29:53;;;;;;;5.90;5.30;;;21.40;92.70;;;;;;5053963;28;20428;-77
2023/07/08 00:32:19;;;;;;;6.10;5.70;;;21.50;92.60;;;;;;5053341;28;20447;-75
2023/07/08 00:34:45;;;;;;;5.73;5.30;;;21.40;92.70;;;;;;5036003;28;20701;-77
2023/07/08 00:37:12;;;;;;;6.70;5.63;;;21.50;92.70;;;;;;5053812;28;20205;-77
2023/07/08 00:39:38;;;;;;;6.23;5.80;;;21.50;92.60;;;;;;5053136;28;20264;-77
2023/07/08 00:42:30;;;;;;;6.43;6.03;;;21.50;92.50;;;;;;5053674;28;20473;-77
2023/07/08 00:44:56;;;;;;;6.13;5.73;;;21.50;92.20;;;;;;5051523;28;20626;-77
2023/07/08 00:47:22;;;;;;;5.70;5.30;;;21.50;92.20;;;;;;5053033;28;20448;-77
2023/07/08 00:50:02;;;;;;;6.53;5.93;;;21.50;92.40;;;;;;5053299;28;20166;-77
2023/07/08 00:52:30;;;;;;;5.53;5.23;;;21.50;92.30;;;;;;5052960;28;20763;-76
2023/07/08 00:55:07;;;;;;;6.70;6.30;;;21.40;92.30;;;;;;5053780;28;20405;-77
2023/07/08 00:57:36;;;;;;;5.90;5.50;;;21.30;92.70;;;;;;5052875;28;20416;-77
2023/07/08 01:00:10;;;;;;;6.27;5.87;;;21.20;92.80;;;;;;5035515;28;20827;-77
2023/07/08 01:02:42;;;;;;;5.80;5.40;;;21.10;93.00;;;;;;5052773;28;20393;-77
2023/07/08 01:05:18;;;;;;;5.60;5.20;;;21.20;92.90;;;;;;5053307;28;20487;-77
2023/07/08 01:07:50;;;;;;;6.90;6.50;;;21.10;93.00;;;;;;5052717;28;20863;-77
2023/07/08 01:10:31;;;;;;;6.07;5.40;;;21.10;93.10;;;;;;5053253;28;20411;-77
2023/07/08 01:13:02;;;;;;;6.10;5.60;;;21.10;93.00;;;;;;5053229;28;20412;-77
2023/07/08 01:15:34;;;;;;;7.17;5.50;;;21.10;93.10;;;;;;5052355;28;20795;-77
2023/07/08 01:18:01;;;;;;;6.10;5.50;;;21.10;92.80;;;;;;5053070;28;20449;-78
2023/07/08 01:20:27;;;;;;;6.03;5.43;;;21.10;92.90;;;;;;5052468;28;20427;-77
2023/07/08 01:22:53;;;;;;;6.07;5.33;;;21.00;93.30;;;;;;5052964;28;20396;-77
2023/07/08 01:25:18;;;;;;;6.77;6.27;;;21.00;93.40;;;;;;5052920;28;20248;-77
2023/07/08 01:27:47;;;;;;;5.60;5.20;;;21.00;93.20;;;;;;5052316;28;20219;-77
2023/07/08 01:30:15;;;;;;;6.17;5.77;;;21.00;93.40;;;;;;5052772;28;20547;-77
2023/07/08 01:32:50;;;;;;;6.50;5.90;;;20.90;94.00;;;;;;5051876;28;20487;-77
2023/07/08 01:35:16;;;;;;;6.17;5.70;;;20.90;93.80;;;;;;5053113;28;20396;-77
2023/07/08 01:38:05;;;;;;;5.70;5.40;;;20.90;93.80;;;;;;5051448;28;20412;-77
2023/07/08 01:40:34;;;;;;;6.30;5.80;;;20.90;93.80;;;;;;5052047;28;20434;-77
2023/07/08 01:43:01;;;;;;;6.43;5.83;;;20.90;93.60;;;;;;5052392;28;20413;-77
2023/07/08 01:45:32;;;;;;;6.50;6.03;;;20.90;94.00;;;;;;5052045;28;20427;-77
2023/07/08 01:48:03;;;;;;;5.90;5.40;;;20.90;94.40;;;;;;5052842;28;20443;-77
2023/07/08 01:50:30;;;;;;;6.30;5.80;;;20.90;93.80;;;;;;5052045;28;20391;-78
2023/07/08 01:52:59;;;;;;;6.43;5.93;;;20.80;93.70;;;;;;5052617;28;20492;-77
2023/07/08 01:55:28;;;;;;;6.40;5.90;;;20.70;93.80;;;;;;5051806;28;20464;-77
2023/07/08 01:57:54;;;;;;;5.90;5.30;;;20.70;93.80;;;;;;5052484;28;20413;-78
2023/07/08 02:00:21;;;;;;;6.80;6.10;;;20.60;93.70;;;;;;5052546;28;20861;-77
2023/07/08 02:02:48;;;;;;;6.73;6.13;;;20.60;93.80;;;;;;5051587;28;20396;-76
2023/07/08 02:05:14;;;;;;;6.80;6.20;;;20.60;93.80;;;;;;5052568;28;20444;-77
2023/07/08 02:07:40;;;;;;;6.60;5.90;;;20.50;93.90;;;;;;5051833;28;20400;-77
2023/07/08 02:10:06;;;;;;;6.87;6.30;;;20.50;94.10;;;;;;5052349;28;20416;-77
2023/07/08 02:12:32;;;;;;;6.63;5.87;;;20.50;94.00;;;;;;5051725;28;20182;-77
2023/07/08 02:15:00;;;;;;;6.30;5.80;;;20.50;93.90;;;;;;5034145;28;20965;-77
2023/07/08 02:17:28;;;;;;;5.93;5.53;;;20.60;93.90;;;;;;5051374;28;20692;-76
2023/07/08 02:19:55;;;;;;;6.20;5.80;;;20.60;93.80;;;;;;5052296;28;20420;-77
2023/07/08 02:22:21;;;;;;;6.80;6.20;;;20.50;93.90;;;;;;5052296;28;20393;-77
2023/07/08 02:24:47;;;;;;;6.40;5.80;;;20.60;94.10;;;;;;5051645;28;20415;-78
2023/07/08 02:27:13;;;;;;;6.90;6.40;;;20.60;94.00;;;;;;5052353;28;20196;-77
2023/07/08 02:29:39;;;;;;;6.03;5.57;;;20.60;94.00;;;;;;5051955;28;20408;-77
2023/07/08 02:32:05;;;;;;;6.60;6.10;;;20.50;94.10;;;;;;5052324;28;20744;-77
2023/07/08 02:34:31;;;;;;;7.47;6.30;;;20.50;94.10;;;;;;5051615;28;20174;-78
2023/07/08 02:36:57;;;;;;;6.43;5.97;;;20.50;94.30;;;;;;5052065;28;20505;-77
2023/07/08 02:39:23;;;;;;;6.47;5.97;;;20.40;94.30;;;;;;5052137;28;20622;-78
2023/07/08 02:41:49;;;;;;;6.13;5.20;;;20.50;94.50;;;;;;5051241;28;20196;-77
2023/07/08 02:44:15;;;;;;;6.33;5.87;;;20.50;94.30;;;;;;5051853;28;20409;-77
2023/07/08 02:46:40;;;;;;;6.40;5.87;;;20.50;94.70;;;;;;5051480;28;20178;-77
2023/07/08 02:49:07;;;;;;;6.10;5.70;;;20.50;95.70;;;;;;5055046;28;20177;-78
2023/07/08 02:51:33;;;;;;;7.40;6.80;;;20.50;96.00;;;;;;5055302;28;20178;-77
2023/07/08 02:53:58;;;;;;;7.60;7.10;;;20.40;96.50;;;;;;5055723;28;20411;-77
2023/07/08 02:56:26;;;;;;;6.97;6.47;;;20.40;96.70;;;;;;5055648;28;20448;-78
2023/07/08 02:58:53;;;;;;;6.40;5.80;;;20.30;96.10;;;;;;5055603;28;20172;-77
2023/07/08 03:01:19;;;;;;;5.97;5.57;;;20.20;95.80;;;;;;5037713;28;20522;-78
2023/07/08 03:03:45;;;;;;;6.60;6.00;;;20.20;95.80;;;;;;5054991;28;20528;-77
2023/07/08 03:06:11;;;;;;;6.70;6.10;;;20.20;96.90;;;;;;5055556;28;20251;-78
2023/07/08 03:08:37;;;;;;;6.10;5.63;;;20.20;97.30;;;;;;5054971;28;20424;-78
2023/07/08 03:11:05;;;;;;;6.20;5.70;;;20.20;97.40;;;;;;5055553;28;20976;-77
2023/07/08 03:13:32;;;;;;;6.73;6.23;;;20.20;97.20;;;;;;5054857;28;20220;-77
2023/07/08 03:15:59;;;;;;;6.13;5.73;;;20.20;97.50;;;;;;5054817;28;21016;-78
2023/07/08 03:18:26;;;;;;;6.70;6.20;;;20.20;97.60;;;;;;5055310;28;20408;-78
2023/07/08 03:20:53;;;;;;;7.27;6.67;;;20.20;97.50;;;;;;5054959;28;20498;-78
2023/07/08 03:23:19;;;;;;;6.83;6.43;;;20.10;97.30;;;;;;5054960;28;20400;-78
2023/07/08 03:25:45;;;;;;;6.40;6.00;;;20.10;98.00;;;;;;5054633;28;20940;-77
2023/07/08 03:28:14;;;;;;;6.57;6.17;;;20.10;98.50;;;;;;5055280;28;20404;-78
2023/07/08 03:30:44;;;;;;;6.03;5.70;;;20.00;99.10;;;;;;5054228;28;20396;-78
2023/07/08 03:33:11;;;;;;;6.60;6.20;;;19.90;99.00;;;;;;5055182;28;20388;-78
2023/07/08 03:35:38;;;;;;;7.53;6.93;;;19.90;99.30;;;;;;5054312;28;20464;-78
2023/07/08 03:38:04;;;;;;;7.93;7.33;;;19.80;99.40;;;;;;5037338;28;20765;-77
2023/07/08 03:40:31;;;;;;;7.10;6.60;;;19.80;99.90;;;;;;5054646;28;20407;-70
2023/07/08 03:42:56;;;;;;;6.80;6.40;;;19.80;99.90;;;;;;5054902;28;20408;-78
2023/07/08 03:45:22;;;;;;;7.40;6.90;;;19.80;99.90;;;;;;5054640;28;20401;-77
2023/07/08 03:47:48;;;;;;;7.63;7.13;;;19.80;99.90;;;;;;5054186;28;20185;-78
2023/07/08 03:50:22;;;;;;;7.03;6.63;;;19.70;99.90;;;;;;5054841;28;20174;-78
2023/07/08 03:52:49;;;;;;;8.23;7.57;;;19.70;99.90;;;;;;5054123;28;20173;-77
2023/07/08 03:55:15;;;;;;;7.10;6.60;;;19.60;99.90;;;;;;5054097;28;20408;-78
2023/07/08 03:57:40;;;;;;;6.90;6.40;;;19.60;99.90;;;;;;5036250;28;20408;-78
2023/07/08 04:00:09;;;;;;;6.67;6.27;;;19.50;99.90;;;;;;5053812;28;20401;-77
2023/07/08 04:02:36;;;;;;;7.20;6.67;;;19.50;99.90;;;;;;5053818;28;20629;-78
2023/07/08 04:05:03;;;;;;;7.40;6.90;;;19.50;99.90;;;;;;5054352;28;20502;-78
2023/07/08 04:07:29;;;;;;;7.70;7.10;;;19.40;99.90;;;;;;5054490;28;20419;-78
2023/07/08 04:09:55;;;;;;;6.60;6.20;;;19.40;99.90;;;;;;5053742;28;20439;-78
2023/07/08 04:12:21;;;;;;;7.10;6.60;;;19.40;99.90;;;;;;5054333;28;20412;-78
2023/07/08 04:14:47;;;;;;;7.13;6.50;;;19.40;99.90;;;;;;5053338;28;20539;-77
2023/07/08 04:17:13;;;;;;;6.43;6.00;;;19.40;99.90;;;;;;5054139;28;20804;-78
2023/07/08 04:19:39;;;;;;;6.40;6.10;;;19.50;99.90;;;;;;5053606;28;20181;-78
2023/07/08 04:22:08;;;;;;;6.60;5.83;;;19.40;99.90;;;;;;5054099;28;20412;-78
2023/07/08 04:24:34;;;;;;;7.13;6.53;;;19.40;99.90;;;;;;5053153;28;20668;-77
2023/07/08 04:27:00;;;;;;;7.43;6.83;;;19.40;99.90;;;;;;5054250;28;20408;-78
2023/07/08 04:29:25;;;;;;;7.07;6.47;;;19.40;99.90;;;;;;5053968;28;20173;-77
2023/07/08 04:31:51;;;;;;;7.23;6.63;;;19.40;99.90;;;;;;5053117;28;20173;-78
2023/07/08 04:34:20;;;;;;;6.70;6.20;;;19.40;99.90;;;;;;5053987;28;20170;-77
2023/07/08 04:36:46;;;;;;;7.30;6.80;;;19.40;99.90;;;;;;5035846;28;20201;-77
2023/07/08 04:39:13;;;;;;;25.63;19.63;;;19.30;99.90;;;;;;5053788;28;20412;-78
2023/07/08 04:41:40;;;;;;;9.93;9.13;;;19.30;99.90;;;;;;5053129;28;20467;-78
2023/07/08 04:44:10;;;;;;;6.83;6.33;;;19.30;99.90;;;;;;5053654;28;20412;-78
2023/07/08 04:46:39;;;;;;;7.00;6.40;;;19.30;99.90;;;;;;5053110;28;20420;-78
2023/07/08 04:49:09;;;;;;;11.40;10.50;;;19.30;99.90;;;;;;5053829;28;20454;-78
2023/07/08 04:51:35;;;;;;;8.30;7.60;;;19.30;99.90;;;;;;5052592;28;20968;-77
2023/07/08 04:54:01;;;;;;;7.30;6.80;;;19.30;99.90;;;;;;5053761;28;20844;-78
2023/07/08 04:56:42;;;;;;;7.77;7.13;;;19.30;99.90;;;;;;5053119;28;20539;-78
2023/07/08 04:59:10;;;;;;;7.63;6.90;;;19.40;99.90;;;;;;5053187;28;20524;-78
2023/07/08 05:01:36;;;;;;;7.27;6.77;;;19.40;99.90;;;;;;5052868;28;20440;-77
2023/07/08 05:04:04;;;;;;;7.20;6.70;;;19.40;99.90;;;;;;5053318;28;20411;-78
2023/07/08 05:06:31;;;;;;;7.13;6.63;;;19.40;99.90;;;;;;5052922;28;20416;-77
2023/07/08 05:08:58;;;;;;;8.20;7.60;;;19.50;99.90;;;;;;5052246;28;20399;-78
2023/07/08 05:11:24;;;;;;;9.23;8.53;;;19.50;99.90;;;;;;5052291;28;20396;-78
2023/07/08 05:13:50;;;;;;;10.07;9.07;;;19.40;99.90;;;;;;5052611;28;20404;-78
2023/07/08 05:16:16;;;;;;;7.63;7.13;;;19.40;99.90;;;;;;5053025;28;20261;-78
2023/07/08 05:18:41;;;;;;;8.07;7.30;;;19.50;99.90;;;;;;5052576;28;20416;-78
2023/07/08 05:21:08;;;;;;;13.60;12.30;;;19.50;99.90;;;;;;5053080;28;20617;-77
2023/07/08 05:23:34;;;;;;;9.50;8.70;;;19.60;99.90;;;;;;5053020;28;20254;-78
2023/07/08 05:26:02;;;;;;;7.77;7.07;;;19.60;99.90;;;;;;5052276;28;20412;-77
2023/07/08 05:28:28;;;;;;;8.17;7.50;;;19.80;99.90;;;;;;5052966;28;20178;-78
2023/07/08 05:30:57;;;;;;;7.93;7.23;;;19.80;99.90;;;;;;5052214;28;20404;-78
2023/07/08 05:33:24;;;;;;;7.30;6.90;;;19.90;99.90;;;;;;5052868;28;20180;-78
2023/07/08 05:35:50;;;;;;;8.73;8.03;;;20.00;99.90;;;;;;5052188;28;20474;-78
2023/07/08 05:38:16;;;;;;;13.47;12.07;;;20.00;99.90;;;;;;5052430;28;20416;-78
2023/07/08 05:40:42;;;;;;;7.80;7.30;;;20.10;99.90;;;;;;5052101;28;20811;-78
2023/07/08 05:43:08;;;;;;;8.83;8.00;;;20.20;99.90;;;;;;5052824;28;20759;-78
2023/07/08 05:45:35;;;;;;;7.97;7.27;;;20.30;99.90;;;;;;5052402;28;20177;-78
2023/07/08 05:48:01;;;;;;;7.60;7.10;;;20.30;99.90;;;;;;5052023;28;20177;-78
2023/07/08 05:50:28;;;;;;;7.27;6.77;;;20.40;99.90;;;;;;5052545;28;20404;-78
2023/07/08 05:52:53;;;;;;;7.63;7.13;;;20.50;99.90;;;;;;5034205;28;20408;-77
2023/07/08 05:55:19;;;;;;;7.93;7.33;;;20.60;99.90;;;;;;5034673;28;20900;-78
2023/07/08 05:57:45;;;;;;;7.83;7.23;;;20.60;99.90;;;;;;5052013;28;20174;-77
2023/07/08 06:00:11;;;;;;;7.77;7.17;;;20.70;99.90;;;;;;5052254;28;20656;-78
2023/07/08 06:02:36;;;;;;;7.70;7.10;;;20.80;99.90;;;;;;5052459;28;20181;-77
2023/07/08 06:05:02;;;;;;;8.27;7.67;;;20.90;99.90;;;;;;5051841;28;20416;-78
2023/07/08 06:07:28;;;;;;;8.20;7.37;;;20.90;99.90;;;;;;5052348;28;20603;-78
2023/07/08 06:09:55;;;;;;;9.00;8.10;;;21.00;99.90;;;;;;5051505;28;20412;-77
2023/07/08 06:12:21;;;;;;;8.70;8.00;;;21.10;99.90;;;;;;5034624;28;20257;-77
2023/07/08 06:14:47;;;;;;;7.37;6.90;;;21.20;99.90;;;;;;5051602;28;20444;-77
2023/07/08 06:17:13;;;;;;;8.63;7.93;;;21.20;99.90;;;;;;5052249;28;20451;-77
2023/07/08 06:19:39;;;;;;;8.80;8.10;;;21.30;99.90;;;;;;5051939;28;20253;-63
2023/07/08 06:22:05;;;;;;;8.83;8.10;;;21.40;99.90;;;;;;5052372;28;20574;-78
2023/07/08 06:24:31;;;;;;;8.70;8.00;;;21.50;99.90;;;;;;5056054;28;20261;-77
2023/07/08 06:26:56;;;;;;;8.63;7.93;;;21.50;99.90;;;;;;5055416;28;20415;-77
2023/07/08 06:29:25;;;;;;;9.70;9.00;;;21.60;99.90;;;;;;5056249;28;20253;-78
2023/07/08 06:31:50;;;;;;;9.20;8.50;;;21.70;99.90;;;;;;5055466;28;20196;-78
2023/07/08 06:34:17;;;;;;;8.67;7.97;;;21.80;99.90;;;;;;5056090;28;20408;-78
2023/07/08 06:36:43;;;;;;;8.80;8.00;;;21.90;99.90;;;;;;5055446;28;20202;-78
2023/07/08 06:39:11;;;;;;;7.83;7.30;;;21.90;99.90;;;;;;5055998;28;20400;-78
2023/07/08 06:41:37;;;;;;;8.17;7.57;;;22.00;99.70;;;;;;5055969;28;20177;-77
2023/07/08 06:44:03;;;;;;;7.70;7.00;;;22.00;97.90;;;;;;5055394;28;20436;-77
2023/07/08 06:46:29;;;;;;;8.30;7.80;;;22.10;97.00;;;;;;5055622;28;20432;-78
2023/07/08 06:48:55;;;;;;;7.93;7.23;;;22.20;97.90;;;;;;5055321;28;20423;-77
2023/07/08 06:51:21;;;;;;;7.40;6.83;;;22.30;98.00;;;;;;5055867;28;20534;-77
2023/07/08 06:53:46;;;;;;;8.63;8.03;;;22.40;97.30;;;;;;5055147;28;20516;-77
2023/07/08 06:56:12;;;;;;;8.40;7.70;;;22.40;97.40;;;;;;5055657;28;20454;-77
2023/07/08 06:58:38;;;;;;;7.70;7.17;;;22.60;97.50;;;;;;5037892;28;20169;-77
2023/07/08 07:01:04;;;;;;;8.20;7.50;;;22.60;95.60;;;;;;5055329;28;20617;-78
2023/07/08 07:03:30;;;;;;;8.27;7.40;;;22.80;94.90;;;;;;5055693;28;20185;-77
2023/07/08 07:05:55;;;;;;;8.10;7.23;;;22.90;95.30;;;;;;5054981;28;20462;-77
2023/07/08 07:08:21;;;;;;;11.30;10.40;;;23.00;94.80;;;;;;5055487;28;20743;-76
2023/07/08 07:10:47;;;;;;;9.80;9.00;;;23.20;94.80;;;;;;5055232;28;20174;-77
2023/07/08 07:13:13;;;;;;;7.50;7.00;;;23.20;92.40;;;;;;5055311;28;20170;-77
2023/07/08 07:15:38;;;;;;;7.67;7.17;;;23.30;91.60;;;;;;5055277;28;20233;-77
2023/07/08 07:18:04;;;;;;;7.53;7.03;;;23.40;91.70;;;;;;5054456;28;20307;-78
2023/07/08 07:20:30;;;;;;;10.87;9.87;;;23.60;92.60;;;;;;5055148;28;20189;-78
2023/07/08 07:22:56;;;;;;;8.13;7.40;;;23.80;93.10;;;;;;5054674;28;20412;-77
2023/07/08 07:25:22;;;;;;;7.83;7.23;;;23.90;92.60;;;;;;5055175;28;20181;-77
2023/07/08 07:27:48;;;;;;;7.30;6.80;;;24.00;91.50;;;;;;5054604;28;20170;-77
2023/07/08 07:30:15;;;;;;;7.00;6.40;;;24.20;91.10;;;;;;5054854;28;20178;-78
2023/07/08 07:32:44;;;;;;;7.40;6.70;;;24.40;91.60;;;;;;5055035;28;20174;-78
2023/07/08 07:35:14;;;;;;;6.80;6.30;;;24.50;91.30;;;;;;5054059;28;20408;-78
2023/07/08 07:37:42;;;;;;;7.30;6.80;;;24.60;89.90;;;;;;5055007;28;20447;-78
2023/07/08 07:40:14;;;;;;;8.23;7.53;;;24.70;89.50;;;;;;5054242;28;20408;-78
2023/07/08 07:42:41;;;;;;;7.60;7.00;;;24.90;90.60;;;;;;5055315;28;20787;-79
2023/07/08 07:45:08;;;;;;;8.00;7.30;;;25.00;89.50;;;;;;5053917;28;20499;-78
2023/07/08 07:47:34;;;;;;;7.50;6.90;;;25.10;88.40;;;;;;5054772;28;20412;-79
2023/07/08 07:50:00;;;;;;;10.23;6.87;;;25.20;88.20;;;;;;5054121;28;20486;-78
2023/07/08 07:52:26;;;;;;;6.90;6.40;;;25.40;89.00;;;;;;5054780;28;20497;-79
2023/07/08 07:54:53;;;;;;;8.50;7.90;;;25.60;89.00;;;;;;5053983;28;20400;-78
2023/07/08 07:57:19;;;;;;;8.07;6.70;;;25.80;89.50;;;;;;5054895;28;20201;-78
2023/07/08 07:59:46;;;;;;;7.23;6.63;;;25.90;89.70;;;;;;5053942;28;20415;-69
2023/07/08 08:02:12;;;;;;;7.37;6.67;;;26.10;87.50;;;;;;5054488;28;20404;-78
2023/07/08 08:04:37;;;;;;;7.00;6.30;;;26.30;86.50;;;;;;5054744;28;20454;-78
2023/07/08 08:07:04;;;;;;;8.10;7.40;;;26.50;86.80;;;;;;5053797;28;20641;-78
2023/07/08 08:09:29;;;;;;;7.13;6.60;;;26.70;87.70;;;;;;5036531;28;20178;-78
2023/07/08 08:11:55;;;;;;;7.23;6.63;;;26.80;85.30;;;;;;5053771;28;20469;-78
2023/07/08 08:14:21;;;;;;;8.33;7.63;;;27.00;84.60;;;;;;5054089;28;20170;-78
2023/07/08 08:16:47;;;;;;;9.20;7.70;;;27.10;84.30;;;;;;5053685;28;20201;-77
2023/07/08 08:19:13;;;;;;;7.93;7.33;;;27.30;82.10;;;;;;5054286;28;21010;-78
2023/07/08 08:21:39;;;;;;;8.10;7.30;;;27.50;82.40;;;;;;5054466;28;20189;-78
2023/07/08 08:24:05;;;;;;;7.80;7.20;;;27.60;78.10;;;;;;5053493;28;20181;-77
2023/07/08 08:26:31;;;;;;;7.00;6.50;;;27.80;76.00;;;;;;5054049;28;20205;-78
2023/07/08 08:28:56;;;;;;;7.70;7.10;;;28.00;77.80;;;;;;5053529;28;20961;-77
2023/07/08 08:31:22;;;;;;;7.57;6.97;;;28.20;79.80;;;;;;5053952;28;20174;-77
2023/07/08 08:33:48;;;;;;;7.80;7.00;;;28.40;79.10;;;;;;5053338;28;20181;-77
2023/07/08 08:36:13;;;;;;;8.67;7.90;;;28.50;74.40;;;;;;5053779;28;20241;-78
2023/07/08 08:38:39;;;;;;;7.90;7.30;;;28.60;70.30;;;;;;5053920;28;20168;-78
2023/07/08 08:41:17;;;;;;;7.20;6.60;;;28.80;69.00;;;;;;5053237;28;20170;-78
2023/07/08 08:43:45;;;;;;;7.97;7.27;;;28.90;65.20;;;;;;5053779;28;20169;-78
2023/07/08 08:46:27;;;;;;;8.10;7.50;;;29.10;66.10;;;;;;5034949;28;20420;-78
2023/07/08 08:49:17;;;;;;;8.20;7.50;;;29.20;67.70;;;;;;5053117;28;20492;-78
2023/07/08 08:51:43;;;;;;;9.60;8.60;;;29.40;67.10;;;;;;5035786;28;20832;-78
2023/07/08 08:54:09;;;;;;;8.10;7.50;;;29.60;68.50;;;;;;5052622;28;20440;-79
2023/07/08 08:56:44;;;;;;;7.77;7.17;;;29.70;70.00;;;;;;5053286;28;20206;-79
2023/07/08 08:59:36;;;;;;;7.87;7.17;;;29.90;68.10;;;;;;5052906;28;20161;-79
2023/07/08 09:02:23;;;;;;;9.10;8.10;;;29.90;62.40;;;;;;5052651;28;20389;-78
2023/07/08 09:04:49;;;;;;;7.60;7.00;;;29.90;63.00;;;;;;5052767;28;20769;-69
2023/07/08 09:07:19;;;;;;;8.67;7.97;;;29.80;57.70;;;;;;5053381;28;20408;-79
2023/07/08 09:09:58;;;;;;;10.43;9.60;;;29.60;58.50;;;;;;5053324;28;20173;-79
2023/07/08 09:12:27;;;;;;;8.77;8.00;;;29.60;58.60;;;;;;5053084;28;20482;-79
2023/07/08 09:14:53;;;;;;;7.80;7.20;;;29.70;57.80;;;;;;5052294;28;20467;-79
2023/07/08 09:17:23;;;;;;;8.30;7.33;;;29.60;56.20;;;;;;5052905;28;20459;-79
2023/07/08 09:20:23;;;;;;;8.70;7.77;;;29.70;56.00;;;;;;5053115;28;20197;-79
2023/07/08 09:23:22;;;;;;;8.20;7.40;;;29.80;56.00;;;;;;5049458;28;20424;-79
2023/07/08 09:26:02;;;;;;;8.33;7.70;;;30.00;54.50;;;;;;5053134;28;20400;-79
2023/07/08 09:28:43;;;;;;;7.43;6.73;;;30.20;56.10;;;;;;5052691;28;20876;-79
2023/07/08 09:31:31;;;;;;;8.20;7.50;;;30.20;55.80;;;;;;5052357;28;20388;-79
2023/07/08 09:34:09;;;;;;;7.67;7.07;;;30.40;57.40;;;;;;5052332;28;20856;-79
2023/07/08 09:36:41;;;;;;;8.03;7.33;;;30.50;54.20;;;;;;5052898;28;20550;-79
2023/07/08 09:39:14;;;;;;;7.63;6.93;;;30.40;53.80;;;;;;5052226;28;20462;-79
2023/07/08 09:41:41;;;;;;;7.60;7.10;;;30.30;54.10;;;;;;5052855;28;20392;-79
2023/07/08 09:44:29;;;;;;;7.77;6.70;;;30.30;54.00;;;;;;5052105;28;20408;-79
2023/07/08 09:46:57;;;;;;;7.47;6.97;;;30.30;53.20;;;;;;5052154;28;20404;-78
2023/07/08 09:49:31;;;;;;;8.33;6.50;;;30.20;54.90;;;;;;5052694;28;20407;-79
2023/07/08 09:51:57;;;;;;;7.20;6.70;;;30.30;55.80;;;;;;5051930;28;20847;-79
2023/07/08 09:54:25;;;;;;;7.43;6.83;;;30.50;53.70;;;;;;5052613;28;20428;-79
2023/07/08 09:57:17;;;;;;;6.43;5.93;;;30.60;53.70;;;;;;5052223;28;20501;-79
2023/07/08 09:59:47;;;;;;;6.53;5.93;;;30.80;55.00;;;;;;5052630;28;20809;-79
2023/07/08 10:02:29;;;;;;;6.10;5.63;;;31.00;54.00;;;;;;5051936;28;20407;-78
2023/07/08 10:04:59;;;;;;;8.10;7.40;;;31.10;50.90;;;;;;5051896;28;20393;-77
2023/07/08 10:07:29;;;;;;;6.40;5.90;;;31.30;51.60;;;;;;5052519;28;20392;-78
2023/07/08 10:09:58;;;;;;;6.50;6.00;;;31.40;51.90;;;;;;5051821;28;20755;-78
2023/07/08 10:12:24;;;;;;;8.03;6.03;;;31.40;50.70;;;;;;5052129;28;20404;-78
2023/07/08 10:14:59;;;;;;;6.00;5.50;;;31.50;51.20;;;;;;5051920;28;20590;-79
2023/07/08 10:17:25;;;;;;;6.67;6.07;;;31.50;52.10;;;;;;5052357;28;20451;-79
2023/07/08 10:19:51;;;;;;;6.13;5.53;;;31.50;50.80;;;;;;5052644;28;20400;-78
2023/07/08 10:22:30;;;;;;;6.67;6.07;;;31.70;52.70;;;;;;5051698;28;20505;-78
2023/07/08 10:25:21;;;;;;;6.83;6.33;;;31.80;52.00;;;;;;5034365;28;20169;-77
2023/07/08 10:28:39;;;;;;;6.93;6.43;;;31.80;49.60;;;;;;5052391;28;20401;-78
2023/07/08 10:31:11;;;;;;;6.30;5.90;;;31.80;51.10;;;;;;5009785;28;20466;-78
2023/07/08 10:33:51;;;;;;;6.30;5.77;;;31.90;51.30;;;;;;5050236;28;20430;-78
2023/07/08 10:36:41;;;;;;;6.43;6.03;;;32.10;51.00;;;;;;5051545;28;20466;-79
2023/07/08 10:39:48;;;;;;;6.60;6.10;;;32.10;49.40;;;;;;5051838;28;20409;-78
2023/07/08 10:42:19;;;;;;;6.80;6.17;;;32.20;50.00;;;;;;5051453;28;20420;-78
2023/07/08 10:44:57;;;;;;;7.03;6.50;;;32.40;54.00;;;;;;5052317;28;20404;-78
2023/07/08 10:47:54;;;;;;;6.40;5.90;;;32.50;52.30;;;;;;5052030;28;20420;-78
2023/07/08 10:50:43;;;;;;;6.40;6.00;;;32.60;50.10;;;;;;5051747;28;20410;-78
2023/07/08 10:53:36;;;;;;;6.63;6.13;;;32.70;49.00;;;;;;5051374;28;20404;-78
2023/07/08 10:56:20;;;;;;;6.50;5.90;;;32.80;51.60;;;;;;5033712;28;20455;-78
2023/07/08 10:59:24;;;;;;;5.73;5.30;;;32.90;49.60;;;;;;5051791;28;20408;-78
2023/07/08 11:02:28;;;;;;;6.00;5.60;;;33.20;50.50;;;;;;5051961;28;20413;-78
2023/07/08 11:04:59;;;;;;;6.93;6.33;;;33.00;46.90;;;;;;5051940;28;20435;-77
2023/07/08 11:07:33;;;;;;;6.57;6.00;;;32.70;46.60;;;;;;5051907;28;20401;-78
2023/07/08 11:10:06;;;;;;;6.83;6.33;;;32.80;50.20;;;;;;5053802;28;20911;-78
2023/07/08 11:12:41;;;;;;;7.33;6.73;;;32.80;46.40;;;;;;5055567;28;20396;-78
2023/07/08 11:15:22;;;;;;;5.70;5.30;;;32.90;47.60;;;;;;5054347;28;20466;-78
2023/07/08 11:18:09;;;;;;;6.20;5.80;;;32.80;47.00;;;;;;5055396;28;20486;-77
2023/07/08 11:20:53;;;;;;;6.37;5.90;;;32.90;46.50;;;;;;5055122;28;20489;-77
2023/07/08 11:23:40;;;;;;;6.20;5.70;;;33.00;47.10;;;;;;5054245;28;20445;-78
2023/07/08 11:26:27;;;;;;;6.20;5.70;;;33.00;45.70;;;;;;5036675;28;20442;-78
2023/07/08 11:28:56;;;;;;;5.50;5.10;;;33.10;46.80;;;;;;5055052;28;20907;-79
2023/07/08 11:31:24;;;;;;;5.83;5.33;;;33.20;48.20;;;;;;5055174;28;20426;-78
2023/07/08 11:33:51;;;;;;;6.00;5.60;;;33.30;46.00;;;;;;5055203;28;20510;-79
2023/07/08 11:36:19;;;;;;;6.20;5.70;;;33.30;46.40;;;;;;5054363;28;20988;-78
2023/07/08 11:38:54;;;;;;;6.80;6.20;;;33.40;45.50;;;;;;5055015;28;20412;-78
2023/07/08 11:41:23;;;;;;;5.93;5.53;;;33.40;47.00;;;;;;5054443;28;20396;-79
2023/07/08 11:43:56;;;;;;;10.57;9.77;;;33.50;47.50;;;;;;5054917;28;20396;-79
2023/07/08 11:46:28;;;;;;;8.37;7.50;;;33.50;46.40;;;;;;5054440;28;20423;-78
2023/07/08 11:49:00;;;;;;;5.90;5.50;;;33.60;46.70;;;;;;5054764;28;20450;-78
2023/07/08 11:51:38;;;;;;;6.47;5.97;;;33.60;46.30;;;;;;5054845;28;20415;-79
2023/07/08 11:54:04;;;;;;;7.00;6.40;;;33.80;46.30;;;;;;5054213;28;20398;-77
2023/07/08 11:56:46;;;;;;;6.30;5.80;;;33.80;44.80;;;;;;5054304;28;20547;-78
2023/07/08 11:59:20;;;;;;;5.67;5.33;;;33.90;43.40;;;;;;5054082;28;20166;-77
2023/07/08 12:02:00;;;;;;;6.80;6.30;;;33.90;44.00;;;;;;5054485;28;20452;-78
2023/07/08 12:04:27;;;;;;;6.43;5.93;;;33.80;42.90;;;;;;5054621;28;20755;-78
2023/07/08 12:07:11;;;;;;;6.43;5.90;;;33.90;44.10;;;;;;5054414;28;20412;-78
2023/07/08 12:09:45;;;;;;;6.53;5.93;;;33.90;44.60;;;;;;5054502;28;20401;-78
2023/07/08 12:12:25;;;;;;;6.50;6.03;;;33.80;43.00;;;;;;5053889;28;20392;-77
2023/07/08 12:14:59;;;;;;;6.60;6.10;;;33.80;45.60;;;;;;5054212;28;20447;-78
2023/07/08 12:17:25;;;;;;;6.47;5.97;;;33.80;45.00;;;;;;5053982;28;20490;-77
2023/07/08 12:19:54;;;;;;;6.80;6.30;;;33.80;44.20;;;;;;5054186;28;20427;-78
2023/07/08 12:22:20;;;;;;;6.33;5.93;;;33.90;44.10;;;;;;5053275;28;20300;-78
2023/07/08 12:24:46;;;;;;;6.77;6.17;;;34.00;46.10;;;;;;5054390;28;20404;-78
2023/07/08 12:27:12;;;;;;;6.77;6.17;;;33.90;43.20;;;;;;5053503;28;20392;-77
2023/07/08 12:29:38;;;;;;;6.70;6.20;;;33.80;42.10;;;;;;5054034;28;20649;-78
2023/07/08 12:32:04;;;;;;;7.07;6.50;;;33.80;45.50;;;;;;5035477;28;20178;-78
2023/07/08 12:34:30;;;;;;;6.53;6.00;;;33.90;47.00;;;;;;5035692;28;20170;-78
2023/07/08 12:36:55;;;;;;;6.73;6.33;;;34.00;46.30;;;;;;5053221;28;20478;-78
2023/07/08 12:39:23;;;;;;;6.77;6.20;;;33.90;44.10;;;;;;5053141;28;20174;-78
2023/07/08 12:41:51;;;;;;;6.93;6.10;;;34.00;42.20;;;;;;5053571;28;20411;-78
2023/07/08 12:44:25;;;;;;;6.73;6.20;;;34.10;45.50;;;;;;5053144;28;20177;-78
2023/07/08 12:46:54;;;;;;;6.40;5.90;;;34.10;45.90;;;;;;5035966;28;20426;-78
2023/07/08 12:49:20;;;;;;;6.87;6.20;;;34.10;47.10;;;;;;5053083;28;20416;-78
2023/07/08 12:51:47;;;;;;;7.03;6.40;;;34.00;42.60;;;;;;5053689;28;20440;-78
2023/07/08 12:54:13;;;;;;;6.33;5.80;;;34.00;45.00;;;;;;5053017;28;20983;-78
2023/07/08 12:56:44;;;;;;;6.53;6.03;;;34.00;44.30;;;;;;5053213;28;20943;-78
2023/07/08 12:59:16;;;;;;;6.20;5.63;;;33.90;44.40;;;;;;5052964;28;20396;-78